Kmdw taf. Refer to Figure 17.) Determine the wind and temperatur...

data at: 2133 utc 24 sep 2023. kmdw 242053z 10009kt 10sm few10

Oct 10, 2023 · KMDW (CHICAGO , IL, US) Text: KMDW 101120Z 1012/1118 28006KT P6SM SCT060 BKN100 : Forecast period: 1200 to 1600 UTC 10 October 2023 Forecast type: FROM: standard forecast or significant change Winds: from the W (280 degrees) at 7 MPH (6 knots; 3.1 m/s) Visibility: 6 or more miles (10+ km) Ceiling: Latest MDW TAF Impacts Board. KMDW: Aviation Forecast Discussion . MDW. Default Runway is 13/31 MDW Observations (ITWS missing when terminal doppler down): ASOS ITWSClouds: few clouds at 5000 feet AGL, broken clouds at 10000 feet AGL. TAF for: KMDW (Chicago/Midway Intl, IL, US) issued at 1130 UTC 22 Sep 2023. Text: KMDW 221130Z 2212/2318 14005KT P6SM -SHRA SCT070 OVC100. Forecast period: 1200 to 1600 UTC 22 September 2023. Forecast type:KMDW - Chicago/Midway Intl, IL, US. Issued at 2320 UTC 30 Aug 2023. Updated at 0003 UTC 31 Aug 2023. Potential Impact: None: Slight: Moderate: High: Time <<31/13Z 31/14Z 31/15Z 31/16Z 31/17Z 31/18Z ... NOTE: LAMP data beyond the time of the TAF data is denoted as LAMP in Type and colored magenta.What are the current conditions depicted for Chicago Midway Airport (KMDW)? -METAR KINK 12185z 11012G18KT 15SM SKC 25/17 A3000. -METAR KBOI 121854z 13004KT 30SM SCT150 17/6 A3015. -METAR KLAX 121852z 25004KT 6SM BR SCT007 SCT250 16/15 A2991. -SPECI KMDW 121856z 32005KT 1 1/2SM RA OVC007 17/16 A2980 RMK RAB35.Clouds: few clouds at 5000 feet AGL, broken clouds at 10000 feet AGL. TAF for: KMDW (Chicago/Midway Intl, IL, US) issued at 1130 UTC 22 Sep 2023. Text: KMDW 221130Z 2212/2318 14005KT P6SM -SHRA SCT070 OVC100. Forecast period: 1200 to 1600 UTC 22 September 2023. Forecast type:METAR KMSP 132353Z 06014G31KT 10SM -RA OVC015 09/07 A2991 RMK AO2 PK WND 05031/2349 SLP133 P0001 60057 T00940072 10094 20089 53018. Current weather is light rain.The wind is from direction 060° with a speed of 14 kt. Visibility is 10 mi. The ceiling, broken or more, is 1,500 ft. The temperature is 9 °C, with a wind chill of 4 °C.NOTE: LAMP data beyond the time of the TAF data is denoted as LAMP in Type and colored magenta. Raw TAF. KMDW 180540Z 1806/1912 34005KT P6SM SCT050. FM182000 11006KT P6SM SCT060. METAR Board. Radar Display. Forecast Discussion. For situational awareness. Not to be used for flight planning purposes. METAR KMLI 152055Z 25006KT 1/2SM SN FZFG BKN008 OVC014 M05/M06 A2957 RMK A02 PRESFR SLP023 P0000 60000 T10501056 53017 · METAR KMDW 152045Z 23009KT 7/8SM -SN ...May 1, 2023 · METAR Chicago Midway International Airport - KMDW/MDW. Chicago Midway International Airport is a large airport in Illinois, United States. The airport is located at latitude 41.78594 and longitude -87.75253. The airport has 5 runways: 13C/31C, 4R/22L, 4L/22R, 13L/31R and 13R/31L. METAR history KMDW · Chicago Midway International Airport Recent 2023 2022 2021 2020 2019 2018 2017 2016 2015 2014 2013 2012 2011 2010 2009 2008 2007 Select a date to see all historical METARs of Chicago Midway International Airport on that day.KINK- 15SM KBOI- 30SM SCT150 KLAX- 6SM BR SC007 SCT250 VFR visibility = 3SM & ceiling of at least 1,000feet. KINK =15SM visibility. KBOI = 30SM visibility with scattered layer @ 15,000 feet KLAX = 6SM visibility with Scattered layers @ 700 feet, & 25,00 feet. The wind & temperature @ 12,000 feet MSL as reported by the pilot are "/TA M7/WV 08021/". KMDW - Chicago/Midway Intl, IL, US. Issued at 0540 UTC 18 Sep 2023. Updated at 0757 UTC 18 Sep 2023. NOTE: LAMP data beyond the time of the TAF data is denoted as LAMP in Type and colored magenta. Raw TAF. KMDW 180540Z 1806/1912 34005KT P6SM SCT050. FM182000 11006KT P6SM SCT060. METAR Board. Radar Display. Forecast Discussion.METAR/Synop Information for KMDW (MDW) in CHICAGO MIDWAY AIRPORT, IL, United States. The following information is known about KMDW.Impacts TAF Board. TAF Home. Plot. Data. Board. Info. For situational awareness. Not to be used for flight planning purposes. IDs: KMDW - Chicago/Midway Intl, IL, US. Issued at 2046 UTC 27 Apr 2023. Updated at 2312 UTC 27 Apr 2023. Potential Impact: None: Slight: Moderate: High: Time 2253Z 28/00Z 28/01Z 28/02Z 28/03Z 28/04ZNo guarantee of current accuracy is given. Airport information for Chicago Midway Intl (KMDW) in , including runways, map, navaids, weather (METAR/TAF) and ATC …TAF for: KMDW (Chicago/Midway Intl, IL, US) issued at 2330 UTC 11 Oct 2023: Text: KMDW 112330Z 1200/1306 12007KT 6SM -SHRA SCT050 BKN070 : Forecast period: 0000 to 0300 UTC 12 October 2023: Forecast type: FROM: standard forecast or significant change: Winds: from the ESE (120 degrees) at 8 MPH (7 knots; 3.6 m/s) Visibility: 6 sm ( 10 km ...data at: 2133 utc 24 sep 2023. kmdw 242053z 10009kt 10sm few100 bkn180 bkn250 24/15 a2999 rmk ao2 slp151 t02440150 56010 $ kmdw 242051z 2421/2524 10008kt p6sm few100 sct200 fm250300 09009kt p6sm vcsh sct080 bkn200 fm250600 11005kt p6sm few060 bkn100 fm252000 07009kt p6sm bkn090Weather Forecasts and Reports. (refer to figure 17) what wind is forecast for STL at 9,000 feet? When you look at the line for STL is reporting 2332 + 02 at 9,000'. Winds from 230 degrees (first two digits). at 32 knots (second two digits), with a temperature of 2 degrees Celsius (last 2 digits)Oct 11, 2023 · TAF Dupage Airport. Dupage Airport is a midsized airport in Illinois, United States. The airport is located at latitude 41.90853 and longitude -88.24736. The airport has 4 runways: 2L/20R, 2R/20L, 10/28 and 15/33. The ICAO airport code of this field is KDPA. The local airport ID (FAA LID) of this airport is DPA. The airport's IATA code is DPA. METAR KMDW 200153Z 03009KT 9SM OVC055 15/07 A3005 RMK AO2 SLP170 T01500067 $. The wind is from direction 030° with a speed of 9 kt. Visibility is 9 mi. The ceiling, broken or more, is 5,500 ft. The temperature and wind chill are 15 °C.METAR text: KDTW 120753Z 04004KT 9SM FEW050 BKN095 OVC210 09/07 A2986 RMK AO2 SLP112 T00890072: Conditions at: KDTW (DETROIT/WAYNE , MI, US) observed 0753 UTC 12 October 2023C) 111 degrees at 2 knots, peak gusts 18 knots. B) 110 degrees at 12 knots, peak gusts 18 knots. (Refer to figure 12.) The remarks section for KMDW has RAB35 listed. This entry means. A) blowing mist has reduced the visibility to 1-1/2 SM. B) rain began at 1835Z. C) the barometer has risen .35 inches Hg. KMDW - Chicago/Midway Intl, IL, US. ... Raw TAF KMDW 071120Z 0712/0818 30012G18KT P6SM FEW050 SCT100 FM080100 30005KT P6SM SCT080 SCT200 METAR Board Radar Display ...KMDW METAR TAF. AREA. AREA METARS AREA TAFS. ADVISORIES. 1 AIRMET. TRENDS. WX HISTORY WX GRAPHS. Search icon. KMDW METAR TAF AREA METARS AREA TAFS 1 AIRMET ...A. aircraft identification or the pilot's name B. true airspeed C. fuel on board. 3528-1. when speaking to an AFSS weather briefer, you should state. A. PIC's full name & address B. summary of qualifications. C. whether the flight is VFR or IFR. Study Chapter 7 flashcards. Wind 7 mph from the South/Southeast. Visibility: 6 miles. Clear sky. TAF: KMDW 010520Z 0106/0212 15006KT P6SM SKC. Weather observations and forecasts of more than 4000 …Impacts TAF Board. TAF Home. Plot. Data. Board. Info. For situational awareness. Not to be used for flight planning purposes. IDs: KMDW - Chicago/Midway Intl, IL, US. Issued at 2046 UTC 27 Apr 2023. Updated at 2312 UTC 27 Apr 2023. Potential Impact: None: Slight: Moderate: High: Time 2253Z 28/00Z 28/01Z 28/02Z 28/03Z 28/04Zdata at: 1017 utc 22 sep 2023. kmdw 220953z 00000kt 10sm bkn080 bkn100 19/18 a3017 rmk ao2 slp210 t01890178 $ kmdw 220856z 2209/2312 09006kt p6sm vcsh sct070 ovc100 tempo 2209/2210 4sm -shra sct035 bkn050 fm221400 14008kt p6sm bkn100 fm222200 08007kt p6sm few050 bkn100kmdw 131053z 09013g21kt 10sm few022 ovc065 14/10 a2993 rmk ao2 slp132 t01390100 $ kmdw 131123z 1312/1418 09013g21kt p6sm bkn070 bkn150 fm131500 10014g25kt p6sm -shra few015 bkn035 fm131900 11014g23kt 5sm -ra sct008 bkn015 ovc025 tempo 1320/1324 2sm ra br bkn008 fm140000 11014g23kt 3sm shra sct005 ovc008 prob30 1402/1406 1sm +tsra bkn005 ovc007cb fm141000 06013g24kt 5sm -shra ovc006 fm141400 ...KMDW (CHICAGO , IL, US) Text: KMDW 282320Z 2900/3006 04009KT P6SM BKN200 : Forecast period: 0000 to 0300 UTC 29 May 2023 Forecast type: FROM: standard forecast or significant change Winds: from the NE (40 degrees) at 10 MPH (9 knots; 4.6 m/s) Visibility: 6 or more miles (10+ km) Ceiling: 20000 feet AGLMETAR KMDW 310653Z 30004KT 10SM BKN250 M01/M03 A2994 RMK AO2 SLP150 T10111033 : December 30, 2022: Time Code Weather Temp. Visibility Ceiling Wind METAR/SPECI; 23:53KMDW - Chicago/Midway Intl, IL, US. Issued at 0530 UTC 05 Jul 2023. Updated at 0806 UTC 05 Jul 2023. Potential Impact: None: Slight: Moderate: High: Time 0753Z 05/09Z 05/10Z 05/11Z 05/12Z 05/13Z ... NOTE: LAMP data beyond the time of the TAF data is denoted as LAMP in Type and colored magenta.METAR KMDW 091353Z 33006KT 10SM FEW040 SCT075 09/M01 A2985 RMK AO2 SLP109 T00941006 ... TAF KMDW. Raw Text. KMDW 091120Z 0912/1018 32006KT P6SM SCT080 FM091600 ...Oct 13, 2023 · KMDW (CHICAGO , IL, US) Text: KMDW 130910Z 1309/1412 09013G21KT P6SM BKN070 BKN150 : Forecast period: 0900 to 1500 UTC 13 October 2023 Forecast type: FROM: standard forecast or significant change Winds: from the E (90 degrees) at 15 MPH (13 knots; 6.7 m/s) gusting to 24 MPH (21 knots; 10.8 m/s) Visibility: Aviation Routine Weather Report (METAR) – Private and Instrument METAR KMDW ... Terminal Aerodrome Forecast (TAF) – Private and Instrument W36 The terminal ...Data at: 1431 UTC 04 Oct 2023. KMDW 041353Z 20008KT 10SM FEW070 FEW090 SCT200 BKN250 23/14 A3000 RMK AO2 SLP150 T02280144. KMDW 041140Z 0412/0518 21013G22KT P6SM BKN100. FM050000 22008KT P6SM VCSH SCT035 BKN080. FM050700 23006KT 6SM -RA SCT025 OVC040. The remarks section for KMDW has RAB35 listed. This entry means... -METAR KINK 12185z 11012G18KT 15SM SKC 25/17 A3000. -METAR KBOI 121854z 13004KT 30SM SCT150 17/6 A3015. -METAR KLAX 121852z 25004KT 6SM BR SCT007 SCT250 16/15 A2991. -SPECI KMDW 121856z 32005KT 1 1/2SM RA OVC007 17/16 A2980 RMK …NOTE: LAMP data beyond the time of the TAF data is denoted as LAMP in Type and colored magenta. Raw TAF KMDW 231451Z 2315/2418 11008KT P6SM SCT100 BKN250 METAR Board Radar Display Forecast Discussion. For situational awareness. Not to be used for flight planning purposes.Study with Quizlet and memorize flashcards containing terms like (Refer to figure 12.) The wind direction and velocity at KJFK is from A 180 true at 4 knots. B 180 magnetic at 4 knots. C 040 true at 18 knots., (Refer to figure 12.) What are the current conditions depicted for Chicago Midway Airport (KMDW)? A Sky 700 feet overcast, visibility 1-1/2SM, rain. B Sky 7000 feet overcast, visibility ...KMDW - Chicago Midway International Airport (18 nm NW) Loc | Ops ... TAF; KGYY 7nm NE : 101724Z 1018/1118 27011G18KT P6SM BKN060 FM110000 25005KT P6SM SCT060 KMDWKMDW - Chicago/Midway Intl, IL, US. Issued at 1120 UTC 08 Apr 2023. Updated at 1354 UTC 08 Apr 2023. Potential Impact: None: Slight: Moderate: High: Time 1253Z 08/14Z 08/15Z 08/16Z 08/17Z 08/18Z ... NOTE: LAMP data beyond the time of the TAF data is denoted as LAMP in Type and colored magenta.METAR/TAF Quiz METAR TAF. EN. ... SPECI KMDW 121856Z 32005KT 1 1/2SM RA OVC007 7/16 A2980 RMK RAB35.<br /> (This special report at Chicago Midway [KMDW] tells us the weather is getting worse,<br /> with the remarks indicating the rain began at 35 past the hour or 1835Z.Oct 11, 2023 · TAF for: KMDW (Chicago/Midway Intl, IL, US) issued at 0853 UTC 11 Oct 2023: Text: KMDW 110853Z 1109/1212 24005KT P6SM FEW100 : Forecast period: 0900 to 1900 UTC 11 October 2023: Forecast type: FROM: standard forecast or significant change: Winds: from the WSW (240 degrees) at 6 MPH (5 knots; 2.6 m/s) Visibility: 6 or more sm (10+ km) Ceiling: KMDW - Chicago/Midway Intl, IL, US. Issued at 0540 UTC 18 Sep 2023. Updated at 0812 UTC 18 Sep 2023. NOTE: LAMP data beyond the time of the TAF data is denoted as LAMP in Type and colored magenta. Raw TAF. KMDW 180540Z 1806/1912 34005KT P6SM SCT050. FM182000 11006KT P6SM SCT060. Raw METAR.Sep 22, 2023 · 10000 feet AGL. Clouds: few clouds at 5000 feet AGL, broken clouds at 10000 feet AGL. TAF for: KMDW (Chicago/Midway Intl, IL, US) issued at 1130 UTC 22 Sep 2023. Text: KMDW 221130Z 2212/2318 14005KT P6SM -SHRA SCT070 OVC100. Forecast period: 1200 to 1600 UTC 22 September 2023. KMDW METAR Chicago Midway International Airport Observation time: 18 min. ago KMDW 100953Z 28005KT 10SM FEW100 06/M01 A2979 RMK AO2 SLP088 T00561011 Need help? Read our tutorial on how to read METARs or read the parsed version below. Decoded METAR Decoded TAF TAF for: KDEN (Denver Intl, CO, US) issued at 0212 UTC 13 Oct 2023: Text: KDEN 130212Z 1302/1406 36024G44KT P6SM VCSH SCT060 BKN080 BKN120 : Forecast period: 0200 to 0400 UTC 13 October 2023: Forecast type: FROM: standard forecast or significant change: Winds: from the N (360 degrees) at 28 MPH (24 knots; 12.3 m/s) gusting to 51 MPH (44 knots ...TAF Home. Plot. Data. Board. Info. For situational awareness. Not to be used for flight planning purposes. IDs: KMDW - Chicago/Midway Intl, IL, US. Issued at 0901 UTC ... METAR TAF : Current weather observation and Forecast, Chicago Midway International Airport Illinois United States. Satellite images. 10-day forecasts. ... TAF: KMDW 211728Z 2118/2224 09008KT P6SM VCSH SCT060 OVC100 TEMPO 2118/2122 5SM -SHRA SCT040 BKN070 FM220000 09005KT P6SM VCSH SCT060 BKN100 PROB30 …Oct 11, 2023 · METAR Chicago O'hare International Airport - KORD/ORD. Chicago O'hare International Airport is a large airport in Illinois, United States. The airport is located at latitude 41.97728 and longitude -87.90784. The airport has 8 runways: 10L/28R, 9R/27L, 9C/27C, 4R/22L, 4L/22R, 9L/27R, 10C/28C and 10R/28L. The ICAO airport code of this field is KORD. Make your Flight Plan at SkyVector.com. SkyVector is a free online flight planner. Flight planning is easy on our large collection of Aeronautical Charts, including Sectional Charts, Approach Plates, IFR Enroute Charts, and Helicopter route charts. Weather data is always current, as are Jet Fuel Prices and avgas 100ll prices. Include TAF. Show METAR board. IDs: Search METAR Sites. ADDS Station Table. NCEI METAR Archive. Vietor Weather 2023 to obtain more information about this web site. Server ...METAR TAF : Current weather observation and Forecast, Chicago Midway International Airport Illinois United States. Satellite images. 10-day forecasts. ... TAF: KMDW 211728Z 2118/2224 09008KT P6SM VCSH SCT060 OVC100 TEMPO 2118/2122 5SM -SHRA SCT040 BKN070 FM220000 09005KT P6SM VCSH SCT060 BKN100 PROB30 …METAR & TAF. Decodificador visual. Aeropuerto Internacional Midway KMDW. Compartir Registrarse ¡Gratis! Iniciar sesión Configuración Modo oscuro. METAR ... Guía ; Pantalla completa Compartir. Actualizar. NOTAM Aeropuerto Internacional Midway (KMDW) 14 abril 4:33 p. m. LT 3mnd . 04/152 13 abr. 2022 6:59 p. m. LT KMDW.klot 141345z 02019g24kt 2 1/2sm -ra br ovc007 11/11 a2974 no taf found for klot. kmdw 141353z 05013g25kt 2 1/2sm -ra br bkn007 bkn011 ovc024 12/10 a2975 rmk ao2 pk wnd 04029/1343 slp072 p0003 t01170100 $ kmdw 141307z 1413/1518 05019g30kt 4sm -ra br bkn007 ovc012 tempo 1413/1415 1 1/2sm ra br fm141600 04019g30kt 5sm -shra sct007 …raw taf kmdw 271730z 2718/2824 09010kt p6sm vcsh sct015 bkn025 fm280100 07008kt p6sm sct008 bkn020 fm280600 06006kt 5sm br bkn008 fm281500 06008kt p6sm bkn015 fm282100 05008kt p6sm sct025 bkn035 raw metar kmdw 271953z 09013kt 9sm sct015 bkn036 ovc044 20/16 a3004 rmk ao2 slp166 t02000161 kmdw 271853z 08012kt 8sm …KMDW - Chicago/Midway Intl, IL, US. Issued at 1120 UTC 08 Apr 2023. Updated at 1354 UTC 08 Apr 2023. Potential Impact: None: Slight: Moderate: High: Time 1253Z 08/14Z 08/15Z 08/16Z 08/17Z 08/18Z ... NOTE: LAMP data beyond the time of the TAF data is denoted as LAMP in Type and colored magenta.Latest MDW TAF Impacts Board. KMDW: Aviation Forecast Discussion . MDW. Default Runway is 13/31 MDW Observations (ITWS missing when terminal doppler down): ASOS ITWS Surface Weather Charts . 6 HR Forecast Surface Map. 12 HR Forecast Surface Map. 18 HR Forecast Surface Map.TAMPA. FL. US. 27.97. -82.53. 2. ADDS Station Table (full) Page loaded: 07:48 UTC | 12:48 AM Pacific | 01:48 AM Mountain | 02:48 AM Central | 03:48 AM Eastern. Aviation Weather Center Homepage provides comprehensive user-friendly aviation weather Text products and graphics. determine magnetic heading for flight from Mercer County (3) to Minot (1). wind from 330 deg at 25 kts, TAS 100 kts, magnetic variation 10 deg east. 352 degrees. determine magnetic heading for flight from Sandpoint (1) to St. Maries (4). wind from 215 deg at 25 kts, TAS 125 kts. 169 degrees. Study ch 7-9 flashcards. METAR, TAF or SPECI. A METAR (METeorological Aerodrome Report) is an observation and provides information about the current weather. Sometimes a METAR also gives a short-term forecast. A TAF (Terminal Area Forecast) provides a forecast for a longer period, for example 8, 24 or 36 hours. In addition to the METAR and TAF, there is also a …KINL is reporting the wind as 11012G18KT. This means that the wind direction (first three digits) is from 110 TRUE at (next two digit) 12 knots, (plus gusting information) to 18 knots= 110 degrees at 12 knots, gusts to 18 knots. Refer to Figure 17. Determine the wind and temperature aloft forecast for ALS at 12, 000 feet. Weather Forecasts and Reports. (refer to figure 17) what wind is forecast for STL at 9,000 feet? When you look at the line for STL is reporting 2332 + 02 at 9,000'. Winds from 230 degrees (first two digits). at 32 knots (second two digits), with a temperature of 2 degrees Celsius (last 2 digits)KMDW - Chicago/Midway Intl, IL, US. ... Raw TAF KMDW 071120Z 0712/0818 30012G18KT P6SM FEW050 SCT100 FM080100 30005KT P6SM SCT080 SCT200 METAR Board Radar Display ... KINK- 15SM KBOI- 30SM SCT150 KLAX- 6SM BR SC007 SCT250 VFR visibility = 3SM & ceiling of at least 1,000feet. KINK =15SM visibility. KBOI = 30SM visibility with scattered layer @ 15,000 feet KLAX = 6SM visibility with Scattered layers @ 700 feet, & 25,00 feet. The wind & temperature @ 12,000 feet MSL as reported by the pilot are "/TA M7/WV 08021/". TAF for: KMDW (Chicago/Midway Intl, IL, US) issued at 1120 UTC 06 Aug 2023 ... KMDW 061120Z 0612/0718 05015G22KT P6SM VCSH BKN012 OVC025 : Forecast period: 1200 to 1900 UTC 06 August 2023: Forecast type: FROM: standard forecast or significant change: Winds: from the NE (50 degrees) at 17 MPH (15 knots; 7.7 m/s) …TAF for: KATL (Atlanta/Hartsfield I, GA, US) issued at 2157 UTC 12 Oct 2023: Text: KATL 122157Z 1222/1324 05015KT P6SM BKN022 OVC030 : Forecast period: 2200 UTC 12 October 2023 to 0000 UTC 13 October 2023: Forecast type: FROM: standard forecast or significant change: Winds: from the NE (50 degrees) at 17 MPH (15 knots; 7.7 …METAR Data. METAR Home. Plot. Data. Board. Info. IDs: Format: Raw Decoded Include TAF. Data at: 1956 UTC 22 Sep 2023. KGUS 221855Z 11008KT 10SM FEW180 BKN200 27/12 A3013 RMK AO2A SLP202 WND DATA ESTMD T02740122 $.NOTE: LAMP data beyond the time of the TAF data is denoted as LAMP in Type and colored magenta. Raw TAF KMDW 271730Z 2718/2824 09010KT P6SM VCSH SCT015 BKN025 FM280100 07008KT P6SM SCT008 BKN020 FM280600 06006KT 5SM BR BKN008 FM281500 06008KT P6SM BKN015 FM282100 05008KT P6SM SCT025 BKN035 Raw METAR KMDW 271953Z 09013KT 9SM SCT015 BKN036 OVC044 20/16 A3004 RMK AO2 SLP166 T02000161 KMDW 271853Z ... data at: 2133 utc 24 sep 2023. kmdw 242053z 10009kt 10sm few100 bkn180 bkn250 24/15 a2999 rmk ao2 slp151 t02440150 56010 $ kmdw 242051z 2421/2524 10008kt p6sm few100 sct200 fm250300 09009kt p6sm vcsh sct080 bkn200 fm250600 11005kt p6sm few060 bkn100 fm252000 07009kt p6sm bkn090METAR Data. METAR Home. Plot. Data. Board. Info. IDs: Format: Raw Decoded Include TAF. Data at: 1956 UTC 22 Sep 2023. KGUS 221855Z 11008KT 10SM FEW180 BKN200 27/12 A3013 RMK AO2A SLP202 WND DATA ESTMD T02740122 $.PAMR 280153Z 29004KT 10SM CLR 11/01 A2980 RMK AO2 SLP091 T01060006. PAMR 280053Z 30004KT 10SM CLR 11/M01 A2979 RMK AO2 SLP087 T01061006. PAMR 272353Z 00000KT 10SM CLR 11/M02 A2978 RMK AO2 SLP084 T01061017 10111 20039 53004. PAMR 272253Z 03005KT 10SM CLR 11/M02 A2977 RMK AO2 SLP082 T01061022. KMDW (CHICAGO , IL, US) Text: KMDW 130910Z 1309/1412 09013G21KT P6SM BKN070 BKN150 : Forecast period: 0900 to 1500 UTC 13 October 2023 Forecast type: FROM: standard forecast or significant change Winds: from the E (90 degrees) at 15 MPH (13 knots; 6.7 m/s) gusting to 24 MPH (21 knots; 10.8 m/s) Visibility:PHONE 773-884-4424. WX ASOS at DPA (16 nm W): PHONE 630-587-3668. CLASS B FREQS 120.55/306.925 FOR VFR AIRCRAFT REQUESTING TRAFFIC ADVISORIES OR TO TRANSITION CLASS B NORTH OF OHARE. CLASS B FREQS 133.5/349.0 FOR VFR AIRCRAFT REQUESTING TRAFFIC ADVISORIES OR TO TRANSITION CLASS B SOUTH OF OHARE.What are the current conditions depicted for Chicago Midway Airport (KMDW)? -METAR KINK 12185z 11012G18KT 15SM SKC 25/17 A3000. -METAR KBOI 121854z 13004KT 30SM SCT150 17/6 A3015. -METAR KLAX 121852z 25004KT 6SM BR SCT007 SCT250 16/15 A2991. -SPECI KMDW 121856z 32005KT 1 1/2SM RA OVC007 17/16 A2980 RMK RAB35.Impacts TAF Board. TAF Home. Plot. Data. Board. Info. For situational awareness. Not to be used for flight planning purposes. IDs: KMDW - Chicago/Midway Intl, IL, US. Issued at 0858 UTC 12 Jul 2023. Updated at 0859 UTC 12 Jul 2023. Potential Impact: None: Slight: Moderate: High: Time 0853Z 12/09Z 12/10Z 12/11Z 12/12Z 12/13ZData at: 1431 UTC 04 Oct 2023. KMDW 041353Z 20008KT 10SM FEW070 FEW090 SCT200 BKN250 23/14 A3000 RMK AO2 SLP150 T02280144. KMDW 041140Z 0412/0518 21013G22KT P6SM BKN100. FM050000 22008KT P6SM VCSH SCT035 BKN080. FM050700 23006KT 6SM -RA SCT025 OVC040.TAF for: KSDF (Louisville Intl, KY, US) issued at 1720 UTC 12 Oct 2023: Text: KSDF 121720Z 1218/1324 VRB04KT P6SM SKC : Forecast period: 1800 UTC 12 October 2023 to 0000 UTC 13 October 2023: Forecast type: FROM: standard forecast or significant change: Winds: variable direction winds at 5 MPH (4 knots; 2.1 m/s) Visibility: 6 or more sm (10+ km ...NOTE: LAMP data beyond the time of the TAF data is denoted as LAMP in Type and colored magenta. Raw TAF KMDW 091734Z 0918/1024 23011KT P6SM SCT060 BKN120 FM092000 23010KT P6SM VCSH BKN060 OVC100 FM100200 23005KT P6SM FEW050 FEW250 FM101600 29012KT P6SM SCT050 FM101900 31012G20KT P6SM SCT050 …METAR Home. Plot. Data. Board. Info. IDs: Format: Raw Decoded Include TAF. Data at: 1007 UTC 11 Oct 2023. Region: TOP. KATL 110952Z 00000KT 10SM BKN200 BKN250 18/13 A2991 RMK AO2 SLP121 T01780133 $.TAF Message type : TAF-routine or TAF AMD-amended forecast, METAR-hourly, SPECI-special or TESTM-non-commissioned ASOS report METAR KPIT ICAO location indicator KPIT 091730Z Issuance time: ALL times in UTC “Z”, 2-digit date, 4-digit time 091955Z 091818 Valid period: 2-digit date, 2-digit beginning, 2-digit ending timesImpacts TAF Board. TAF Home. Plot. Data. Board. Info. For situational awareness. Not to be used for flight planning purposes. IDs: KMDW - Chicago/Midway Intl, IL, US. Issued at 2046 UTC 27 Apr 2023. Updated at 2312 UTC 27 Apr 2023. Potential Impact: None: Slight: Moderate: High: Time 2253Z 28/00Z 28/01Z 28/02Z 28/03Z 28/04ZOct 12, 2023 · TAF for: KSDF (Louisville Intl, KY, US) issued at 1720 UTC 12 Oct 2023: Text: KSDF 121720Z 1218/1324 VRB04KT P6SM SKC : Forecast period: 1800 UTC 12 October 2023 to 0000 UTC 13 October 2023: Forecast type: FROM: standard forecast or significant change: Winds: variable direction winds at 5 MPH (4 knots; 2.1 m/s) Visibility: 6 or more sm (10+ km ... NOTE: LAMP data beyond the time of the TAF data is denoted as LAMP in Type and colored magenta. Raw TAF. KSTL 111500Z 1115/1218 15010KT P6SM SCT050 SCT120. FM120300 18011KT P6SM FEW250.kmdw 011453z 32017g30kt 10sm bkn026 bkn033 ovc039 06/01 a2939 rmk ao2 pk wnd 31030/1444 slp956 60000 t00610011 55001 kmdw 011459z 0115/0218 31019g32kt 5sm -radz br ovc012 tempo 0117/0121 4sm radz br bkn008 …Include TAF. Show METAR board. IDs: Search METAR Sites. ADDS Station Table. NCEI METAR Archive. Vietor Weather 2023 to obtain more information about this web site. Server: devoweb ...TAF; KDPA 30nm N : 081720Z 0818/0918 ... KMDW 37nm NE : 090300Z 0903/1006 30006KT P6SM SCT080 FM091600 30012G18KT P6SM FEW050 FEW250 FM092300 28006KT P6SM FEW250 NOTAMs; Click for the latest NOTAMs: NOTAMs are issued by the DoD/FAA and will open in a separate window not controlled by AirNav.KMDW - Chicago/Midway Intl, IL, US. Issued at 1120 UTC 11 Oct 2023. Updated at 1129 UTC 11 Oct 2023. Potential Impact. None. Slight. Moderate. High. NOTE: LAMP data beyond the time of the TAF data is denoted as LAMP in Type and colored magenta. Raw TAF. KMDW 111120Z 1112/1218 23005KT P6SM SCT100. FM112200 13006KT 6SM -SHRA SCT030 BKN050.Study with Quizlet and memorize flashcards containing terms like (Refer to figure 12.) The wind direction and velocity at KJFK is from A 180 true at 4 knots. B 180 magnetic at 4 knots. C 040 true at 18 knots., (Refer to figure 12.) What are the current conditions depicted for Chicago Midway Airport (KMDW)? A Sky 700 feet overcast, visibility 1-1/2SM, rain. B Sky …Flight plan departing from KLGA - La Guardia, arriving at KMDW - Chicago Midway Intl. Distance 635 nm / 1,176 km. Download for FSX, X-Plane, PMDG, Infinite Flight ...kmdw 091253z 32005kt 10sm few030 few080 07/00 a2984 rmk ao2 slp109 t00720000 kmdw 091120z 0912/1018 32006kt p6sm sct080 fm091600 30011g17kt p6sm few050 few250 fm092300 28006kt p6sm sct200 fm101600 29012g18kt p6sm few050 few250 kmsp 091253z 32006kt 10sm few200 03/01 a2998 rmk ao2 slp156 t00330011 KMDW - Chicago/Midway Intl, IL, US. Issued at 2321 UTC 10 Oct 2023. Updated at 2349 UTC 10 Oct 2023. Potential Impact. None. Slight. Moderate. High. NOTE: LAMP data beyond the time of the TAF data is denoted as LAMP in Type and colored magenta. Raw TAF. KMDW 102321Z 1100/1206 25006KT P6SM SCT080. FM111800 23008KT P6SM VCSH SCT050 BKN100.. Jul 30, 2013 · The remarks section for KMDW has RAB35 listed. This eMETAR TAF : Current weather observation and TAMPA. FL. US. 27.97. -82.53. 2. ADDS Station Table (full) Page loaded: 07:48 UTC | 12:48 AM Pacific | 01:48 AM Mountain | 02:48 AM Central | 03:48 AM Eastern. Aviation Weather Center Homepage provides comprehensive user … Download our app. Easy access to all aviation wea KMDW (CHICAGO , IL, US) Text: KMDW 101120Z 1012/1118 28006KT P6SM SCT060 BKN100 : Forecast period: 1200 to 1600 UTC 10 October 2023 Forecast type: FROM: standard forecast or significant change Winds: from the W (280 degrees) at 7 MPH (6 knots; 3.1 m/s) Visibility: 6 or more miles (10+ km) Ceiling: FM100000 29007KT P6SM BKN230. Page loaded: 15:40 UTC | ...

Continue Reading